sensor_id;sensor_type;location;lat;lon;timestamp;pressure;altitude;pressure_sealevel;temperature;humidity
11808;BME280;5961;42.640;23.380;2024-01-30T00:01:11;95928.47;;;1.85;72.71
11808;BME280;5961;42.640;23.380;2024-01-30T00:03:38;95922.13;;;1.81;72.80
11808;BME280;5961;42.640;23.380;2024-01-30T00:06:07;95929.63;;;1.89;72.31
11808;BME280;5961;42.640;23.380;2024-01-30T00:08:34;95921.75;;;1.89;71.88
11808;BME280;5961;42.640;23.380;2024-01-30T00:11:00;95929.16;;;1.92;72.08
11808;BME280;5961;42.640;23.380;2024-01-30T00:13:27;95924.84;;;1.86;71.89
11808;BME280;5961;42.640;23.380;2024-01-30T00:15:54;95928.03;;;1.88;71.45
11808;BME280;5961;42.640;23.380;2024-01-30T00:18:20;95932.25;;;1.89;71.31
11808;BME280;5961;42.640;23.380;2024-01-30T00:20:47;95924.84;;;1.86;71.00
11808;BME280;5961;42.640;23.380;2024-01-30T00:23:17;95925.84;;;1.85;71.05
11808;BME280;5961;42.640;23.380;2024-01-30T00:25:43;95935.88;;;1.88;70.81
11808;BME280;5961;42.640;23.380;2024-01-30T00:28:10;95940.22;;;1.82;70.70
11808;BME280;5961;42.640;23.380;2024-01-30T00:30:36;95942.06;;;1.82;70.88
11808;BME280;5961;42.640;23.380;2024-01-30T00:33:04;95937.16;;;1.85;70.64
11808;BME280;5961;42.640;23.380;2024-01-30T00:35:31;95942.72;;;1.89;70.74
11808;BME280;5961;42.640;23.380;2024-01-30T00:37:57;95933.16;;;1.83;70.70
11808;BME280;5961;42.640;23.380;2024-01-30T00:40:25;95943.28;;;1.91;70.82
11808;BME280;5961;42.640;23.380;2024-01-30T00:42:52;95934.53;;;1.85;70.98
11808;BME280;5961;42.640;23.380;2024-01-30T00:45:19;95937.84;;;1.81;71.14
11808;BME280;5961;42.640;23.380;2024-01-30T00:47:45;95932.38;;;1.71;71.93
11808;BME280;5961;42.640;23.380;2024-01-30T00:50:12;95928.78;;;1.60;72.23
11808;BME280;5961;42.640;23.380;2024-01-30T00:52:39;95931.41;;;1.60;72.03
11808;BME280;5961;42.640;23.380;2024-01-30T00:55:06;95916.69;;;1.47;71.39
11808;BME280;5961;42.640;23.380;2024-01-30T00:57:34;95930.38;;;1.49;71.92
11808;BME280;5961;42.640;23.380;2024-01-30T01:00:01;95935.50;;;1.56;71.88
11808;BME280;5961;42.640;23.380;2024-01-30T01:02:31;95934.34;;;1.52;71.85
11808;BME280;5961;42.640;23.380;2024-01-30T01:04:58;95927.63;;;1.44;72.35
11808;BME280;5961;42.640;23.380;2024-01-30T01:07:25;95930.38;;;1.38;72.13
11808;BME280;5961;42.640;23.380;2024-01-30T01:09:51;95919.66;;;1.39;72.16
11808;BME280;5961;42.640;23.380;2024-01-30T01:12:18;95929.78;;;1.24;72.84
11808;BME280;5961;42.640;23.380;2024-01-30T01:14:46;95930.84;;;1.23;73.02
11808;BME280;5961;42.640;23.380;2024-01-30T01:17:13;95938.09;;;1.21;72.97
11808;BME280;5961;42.640;23.380;2024-01-30T01:19:39;95926.38;;;1.12;73.04
11808;BME280;5961;42.640;23.380;2024-01-30T01:22:06;95930.13;;;1.16;73.17
11808;BME280;5961;42.640;23.380;2024-01-30T01:24:33;95932.19;;;1.14;73.02
11808;BME280;5961;42.640;23.380;2024-01-30T01:27:00;95932.75;;;1.16;72.54
11808;BME280;5961;42.640;23.380;2024-01-30T01:29:27;95918.28;;;0.90;73.02
11808;BME280;5961;42.640;23.380;2024-01-30T01:31:56;95933.19;;;1.01;73.47
11808;BME280;5961;42.640;23.380;2024-01-30T01:34:23;95933.56;;;1.05;73.24
11808;BME280;5961;42.640;23.380;2024-01-30T01:36:50;95915.53;;;0.97;73.27
11808;BME280;5961;42.640;23.380;2024-01-30T01:39:17;95931.13;;;1.03;72.91
11808;BME280;5961;42.640;23.380;2024-01-30T01:41:44;95939.34;;;1.07;73.22
11808;BME280;5961;42.640;23.380;2024-01-30T01:44:10;95937.44;;;1.14;73.66
11808;BME280;5961;42.640;23.380;2024-01-30T01:46:37;95933.09;;;1.08;73.81
11808;BME280;5961;42.640;23.380;2024-01-30T01:49:06;95937.44;;;1.14;72.93
11808;BME280;5961;42.640;23.380;2024-01-30T01:51:34;95931.28;;;1.20;72.75
11808;BME280;5961;42.640;23.380;2024-01-30T01:54:03;95931.28;;;1.20;72.04
11808;BME280;5961;42.640;23.380;2024-01-30T01:56:30;95936.63;;;1.25;71.49
11808;BME280;5961;42.640;23.380;2024-01-30T01:59:00;95937.78;;;1.29;71.62
11808;BME280;5961;42.640;23.380;2024-01-30T02:01:31;95937.53;;;1.31;71.06
11808;BME280;5961;42.640;23.380;2024-01-30T02:03:59;95948.72;;;1.26;71.58
11808;BME280;5961;42.640;23.380;2024-01-30T02:06:27;95944.50;;;1.25;71.34
11808;BME280;5961;42.640;23.380;2024-01-30T02:08:54;95931.94;;;1.27;71.73
11808;BME280;5961;42.640;23.380;2024-01-30T02:11:22;95940.97;;;1.31;71.21
11808;BME280;5961;42.640;23.380;2024-01-30T02:13:49;95947.22;;;1.30;70.49
11808;BME280;5961;42.640;23.380;2024-01-30T02:16:16;95947.00;;;1.20;70.72
11808;BME280;5961;42.640;23.380;2024-01-30T02:18:43;95944.84;;;1.17;70.78
11808;BME280;5961;42.640;23.380;2024-01-30T02:21:14;95939.69;;;1.22;70.18
11808;BME280;5961;42.640;23.380;2024-01-30T02:23:41;95941.31;;;1.23;70.12
11808;BME280;5961;42.640;23.380;2024-01-30T02:26:09;95936.72;;;1.19;69.87
11808;BME280;5961;42.640;23.380;2024-01-30T02:28:36;95943.78;;;1.18;70.33
11808;BME280;5961;42.640;23.380;2024-01-30T02:31:03;95936.06;;;1.12;70.61
11808;BME280;5961;42.640;23.380;2024-01-30T02:33:30;95940.72;;;1.21;70.47
11808;BME280;5961;42.640;23.380;2024-01-30T02:35:56;95937.88;;;1.23;70.32
11808;BME280;5961;42.640;23.380;2024-01-30T02:38:24;95940.63;;;1.16;70.74
11808;BME280;5961;42.640;23.380;2024-01-30T02:40:52;95933.75;;;1.15;71.24
11808;BME280;5961;42.640;23.380;2024-01-30T02:43:18;95939.59;;;1.17;70.87
11808;BME280;5961;42.640;23.380;2024-01-30T02:45:45;95936.38;;;1.15;70.61
11808;BME280;5961;42.640;23.380;2024-01-30T02:48:12;95945.84;;;1.16;70.25
11808;BME280;5961;42.640;23.380;2024-01-30T02:50:39;95932.06;;;1.09;70.70
11808;BME280;5961;42.640;23.380;2024-01-30T02:53:05;95943.34;;;1.21;70.50
11808;BME280;5961;42.640;23.380;2024-01-30T02:55:33;95925.91;;;1.15;70.22
11808;BME280;5961;42.640;23.380;2024-01-30T02:58:00;95935.38;;;1.28;70.27
11808;BME280;5961;42.640;23.380;2024-01-30T03:00:26;95938.78;;;1.28;69.13
11808;BME280;5961;42.640;23.380;2024-01-30T03:02:52;95938.69;;;1.23;69.66
11808;BME280;5961;42.640;23.380;2024-01-30T03:05:19;95936.06;;;1.23;69.31
11808;BME280;5961;42.640;23.380;2024-01-30T03:07:46;95934.47;;;1.22;69.86
11808;BME280;5961;42.640;23.380;2024-01-30T03:10:12;95930.59;;;1.25;70.00
11808;BME280;5961;42.640;23.380;2024-01-30T03:12:40;95922.72;;;1.25;69.68
11808;BME280;5961;42.640;23.380;2024-01-30T03:15:08;95930.38;;;1.26;69.56
11808;BME280;5961;42.640;23.380;2024-01-30T03:17:35;95929.69;;;1.19;69.75
11808;BME280;5961;42.640;23.380;2024-01-30T03:20:02;95932.75;;;1.16;70.02
11808;BME280;5961;42.640;23.380;2024-01-30T03:22:29;95928.53;;;1.15;69.17
11808;BME280;5961;42.640;23.380;2024-01-30T03:24:56;95935.63;;;1.15;70.01
11808;BME280;5961;42.640;23.380;2024-01-30T03:27:22;95922.63;;;0.96;68.52
11808;BME280;5961;42.640;23.380;2024-01-30T03:29:50;95926.34;;;1.00;68.67
11808;BME280;5961;42.640;23.380;2024-01-30T03:32:17;95933.66;;;1.10;68.10
11808;BME280;5961;42.640;23.380;2024-01-30T03:34:44;95933.44;;;1.12;68.17
11808;BME280;5961;42.640;23.380;2024-01-30T03:37:10;95926.97;;;1.14;68.01
11808;BME280;5961;42.640;23.380;2024-01-30T03:39:37;95926.97;;;1.14;68.22
11808;BME280;5961;42.640;23.380;2024-01-30T03:42:04;95918.84;;;1.16;68.26
11808;BME280;5961;42.640;23.380;2024-01-30T03:44:30;95928.97;;;1.12;67.98
11808;BME280;5961;42.640;23.380;2024-01-30T03:46:58;95928.97;;;1.12;67.17
11808;BME280;5961;42.640;23.380;2024-01-30T03:49:25;95920.69;;;1.15;66.82
11808;BME280;5961;42.640;23.380;2024-01-30T03:51:52;95919.19;;;1.19;67.21
11808;BME280;5961;42.640;23.380;2024-01-30T03:54:18;95883.66;;;1.00;67.46
11808;BME280;5961;42.640;23.380;2024-01-30T03:56:45;95922.28;;;1.16;67.65
11808;BME280;5961;42.640;23.380;2024-01-30T03:59:12;95918.28;;;1.14;68.26
11808;BME280;5961;42.640;23.380;2024-01-30T04:01:38;95909.28;;;1.09;68.42
11808;BME280;5961;42.640;23.380;2024-01-30T04:04:06;95917.75;;;1.12;69.54
11808;BME280;5961;42.640;23.380;2024-01-30T04:06:33;95909.53;;;1.08;69.43
11808;BME280;5961;42.640;23.380;2024-01-30T04:09:00;95910.66;;;1.12;69.71
11808;BME280;5961;42.640;23.380;2024-01-30T04:11:26;95909.19;;;1.16;69.03
11808;BME280;5961;42.640;23.380;2024-01-30T04:13:53;95902.69;;;1.07;69.15
11808;BME280;5961;42.640;23.380;2024-01-30T04:16:20;95917.94;;;1.10;68.95
11808;BME280;5961;42.640;23.380;2024-01-30T04:18:47;95908.63;;;1.14;68.73
11808;BME280;5961;42.640;23.380;2024-01-30T04:21:15;95923.53;;;1.14;68.36
11808;BME280;5961;42.640;23.380;2024-01-30T04:23:42;95915.78;;;1.07;68.29
11808;BME280;5961;42.640;23.380;2024-01-30T04:26:08;95918.41;;;1.07;68.00
11808;BME280;5961;42.640;23.380;2024-01-30T04:28:35;95909.97;;;0.93;67.77
11808;BME280;5961;42.640;23.380;2024-01-30T04:31:02;95911.78;;;0.81;68.11
11808;BME280;5961;42.640;23.380;2024-01-30T04:33:28;95922.13;;;0.88;67.65
11808;BME280;5961;42.640;23.380;2024-01-30T04:35:55;95899.81;;;0.74;66.90
11808;BME280;5961;42.640;23.380;2024-01-30T04:38:23;95920.44;;;0.93;66.97
11808;BME280;5961;42.640;23.380;2024-01-30T04:40:50;95919.66;;;0.93;67.30
11808;BME280;5961;42.640;23.380;2024-01-30T04:43:16;95930.13;;;0.93;66.91
11808;BME280;5961;42.640;23.380;2024-01-30T04:45:44;95927.50;;;0.93;67.05
11808;BME280;5961;42.640;23.380;2024-01-30T04:48:11;95927.06;;;0.96;67.13
11808;BME280;5961;42.640;23.380;2024-01-30T04:50:37;95931.84;;;0.99;67.05
11808;BME280;5961;42.640;23.380;2024-01-30T04:53:04;95937.06;;;0.99;66.83
11808;BME280;5961;42.640;23.380;2024-01-30T04:55:32;95939.25;;;1.02;66.83
11808;BME280;5961;42.640;23.380;2024-01-30T04:57:58;95939.00;;;1.03;66.51
11808;BME280;5961;42.640;23.380;2024-01-30T05:00:25;95945.03;;;1.04;66.25
11808;BME280;5961;42.640;23.380;2024-01-30T05:02:52;95951.28;;;1.03;66.27
11808;BME280;5961;42.640;23.380;2024-01-30T05:05:18;95943.44;;;1.03;66.50
11808;BME280;5961;42.640;23.380;2024-01-30T05:07:47;95945.03;;;1.04;66.91
11808;BME280;5961;42.640;23.380;2024-01-30T05:10:14;95943.31;;;0.98;66.52
11808;BME280;5961;42.640;23.380;2024-01-30T05:12:42;95946.19;;;0.96;67.23
11808;BME280;5961;42.640;23.380;2024-01-30T05:15:09;95932.94;;;0.91;67.55
11808;BME280;5961;42.640;23.380;2024-01-30T05:17:36;95944.94;;;0.99;67.44
11808;BME280;5961;42.640;23.380;2024-01-30T05:20:03;95947.91;;;1.02;67.40
11808;BME280;5961;42.640;23.380;2024-01-30T05:22:30;95951.28;;;1.03;67.53
11808;BME280;5961;42.640;23.380;2024-01-30T05:24:56;95942.41;;;1.04;67.76
11808;BME280;5961;42.640;23.380;2024-01-30T05:27:23;95954.59;;;1.10;67.64
11808;BME280;5961;42.640;23.380;2024-01-30T05:29:51;95949.59;;;1.08;68.21
11808;BME280;5961;42.640;23.380;2024-01-30T05:32:18;95949.03;;;1.06;67.87
11808;BME280;5961;42.640;23.380;2024-01-30T05:34:44;95958.72;;;1.18;67.97
11808;BME280;5961;42.640;23.380;2024-01-30T05:37:11;95951.31;;;1.15;67.79
11808;BME280;5961;42.640;23.380;2024-01-30T05:39:42;95956.31;;;1.16;67.64
11808;BME280;5961;42.640;23.380;2024-01-30T05:42:08;95955.06;;;1.19;67.79
11808;BME280;5961;42.640;23.380;2024-01-30T05:44:35;95959.06;;;1.21;67.56
11808;BME280;5961;42.640;23.380;2024-01-30T05:47:03;95962.91;;;1.07;68.53
11808;BME280;5961;42.640;23.380;2024-01-30T05:49:30;95961.00;;;1.02;69.47
11808;BME280;5961;42.640;23.380;2024-01-30T05:51:57;95955.25;;;0.94;68.94
11808;BME280;5961;42.640;23.380;2024-01-30T05:54:23;95947.75;;;0.86;68.58
11808;BME280;5961;42.640;23.380;2024-01-30T05:56:50;95955.97;;;0.60;70.84
11808;BME280;5961;42.640;23.380;2024-01-30T05:59:17;95902.97;;;0.23;71.00
11808;BME280;5961;42.640;23.380;2024-01-30T06:01:45;95956.31;;;0.33;72.36
11808;BME280;5961;42.640;23.380;2024-01-30T06:04:14;95941.69;;;0.14;71.74
11808;BME280;5961;42.640;23.380;2024-01-30T06:06:41;95934.38;;;0.05;71.37
11808;BME280;5961;42.640;23.380;2024-01-30T06:09:08;95952.69;;;0.05;70.64
11808;BME280;5961;42.640;23.380;2024-01-30T06:11:35;95955.84;;;0.07;71.17
11808;BME280;5961;42.640;23.380;2024-01-30T06:14:01;95953.25;;;0.07;71.21
11808;BME280;5961;42.640;23.380;2024-01-30T06:16:28;95953.69;;;0.04;71.04
11808;BME280;5961;42.640;23.380;2024-01-30T06:18:55;95957.53;;;0.01;71.06
11808;BME280;5961;42.640;23.380;2024-01-30T06:21:23;95952.75;;;-0.02;70.48
11808;BME280;5961;42.640;23.380;2024-01-30T06:23:50;95957.53;;;0.01;71.07
11808;BME280;5961;42.640;23.380;2024-01-30T06:26:17;95953.91;;;0.02;70.98
11808;BME280;5961;42.640;23.380;2024-01-30T06:28:43;95950.56;;;-0.05;70.51
11808;BME280;5961;42.640;23.380;2024-01-30T06:31:10;95953.50;;;-0.13;71.18
11808;BME280;5961;42.640;23.380;2024-01-30T06:33:37;95950.94;;;-0.20;71.31
11808;BME280;5961;42.640;23.380;2024-01-30T06:36:33;95954.94;;;-0.17;71.95
11808;BME280;5961;42.640;23.380;2024-01-30T06:38:59;95952.94;;;-0.15;71.32
11808;BME280;5961;42.640;23.380;2024-01-30T06:41:26;95957.34;;;-0.16;70.04
11808;BME280;5961;42.640;23.380;2024-01-30T06:43:53;95954.81;;;-0.22;71.04
11808;BME280;5961;42.640;23.380;2024-01-30T06:46:19;95954.34;;;-0.37;70.65
11808;BME280;5961;42.640;23.380;2024-01-30T06:48:46;95946.66;;;-0.50;71.59
11808;BME280;5961;42.640;23.380;2024-01-30T06:51:12;95960.88;;;-0.46;71.45
11808;BME280;5961;42.640;23.380;2024-01-30T06:53:41;95962.91;;;-0.48;71.66
11808;BME280;5961;42.640;23.380;2024-01-30T06:56:07;95965.78;;;-0.57;71.14
11808;BME280;5961;42.640;23.380;2024-01-30T06:58:34;95967.84;;;-0.59;70.61
11808;BME280;5961;42.640;23.380;2024-01-30T07:01:01;95967.03;;;-0.59;70.73
11808;BME280;5961;42.640;23.380;2024-01-30T07:03:28;95973.47;;;-0.62;71.15
11808;BME280;5961;42.640;23.380;2024-01-30T07:05:54;95971.69;;;-0.61;71.34
11808;BME280;5961;42.640;23.380;2024-01-30T07:08:21;95967.41;;;-0.56;70.65
11808;BME280;5961;42.640;23.380;2024-01-30T07:10:49;95964.34;;;-0.52;70.53
11808;BME280;5961;42.640;23.380;2024-01-30T07:13:16;95965.72;;;-0.50;69.49
11808;BME280;5961;42.640;23.380;2024-01-30T07:15:42;95966.38;;;-0.73;71.15
11808;BME280;5961;42.640;23.380;2024-01-30T07:18:09;95965.94;;;-0.70;71.08
11808;BME280;5961;42.640;23.380;2024-01-30T07:20:36;95959.41;;;-0.61;73.21
11808;BME280;5961;42.640;23.380;2024-01-30T07:23:03;95971.25;;;-0.58;71.92
11808;BME280;5961;42.640;23.380;2024-01-30T07:25:30;95962.81;;;-0.60;71.98
11808;BME280;5961;42.640;23.380;2024-01-30T07:27:58;95969.44;;;-0.58;72.16
11808;BME280;5961;42.640;23.380;2024-01-30T07:30:25;95936.84;;;-0.73;71.76
11808;BME280;5961;42.640;23.380;2024-01-30T07:32:51;95969.53;;;-0.46;71.53
11808;BME280;5961;42.640;23.380;2024-01-30T07:35:18;95968.84;;;-0.41;72.12
11808;BME280;5961;42.640;23.380;2024-01-30T07:37:45;95942.72;;;-0.60;71.92
11808;BME280;5961;42.640;23.380;2024-01-30T07:40:12;95964.00;;;-0.38;71.40
11808;BME280;5961;42.640;23.380;2024-01-30T07:42:39;95968.84;;;-0.41;71.75
11808;BME280;5961;42.640;23.380;2024-01-30T07:45:08;95964.56;;;-0.36;71.11
11808;BME280;5961;42.640;23.380;2024-01-30T07:47:35;95961.34;;;-0.31;70.64
11808;BME280;5961;42.640;23.380;2024-01-30T07:50:02;95954.88;;;-0.29;69.95
11808;BME280;5961;42.640;23.380;2024-01-30T07:52:28;95971.34;;;-0.28;70.29
11808;BME280;5961;42.640;23.380;2024-01-30T07:54:55;95973.66;;;-0.20;69.70
11808;BME280;5961;42.640;23.380;2024-01-30T07:57:22;95972.22;;;-0.16;69.77
11808;BME280;5961;42.640;23.380;2024-01-30T07:59:48;95966.56;;;-0.13;70.42
11808;BME280;5961;42.640;23.380;2024-01-30T08:02:16;95970.34;;;-0.09;70.24
11808;BME280;5961;42.640;23.380;2024-01-30T08:04:43;95961.84;;;-0.05;70.38
11808;BME280;5961;42.640;23.380;2024-01-30T08:07:13;95960.47;;;-0.07;70.71
11808;BME280;5961;42.640;23.380;2024-01-30T08:09:57;95954.34;;;-0.01;70.07
11808;BME280;5961;42.640;23.380;2024-01-30T08:12:24;95961.53;;;0.04;69.45
11808;BME280;5961;42.640;23.380;2024-01-30T08:14:51;95954.91;;;0.19;69.46
11808;BME280;5961;42.640;23.380;2024-01-30T08:17:19;95913.22;;;0.06;69.41
11808;BME280;5961;42.640;23.380;2024-01-30T08:19:45;95964.56;;;0.48;68.40
11808;BME280;5961;42.640;23.380;2024-01-30T08:22:12;95958.44;;;0.54;67.96
11808;BME280;5961;42.640;23.380;2024-01-30T08:24:40;95964.22;;;0.75;67.33
11808;BME280;5961;42.640;23.380;2024-01-30T08:27:07;95964.69;;;0.83;67.56
11808;BME280;5961;42.640;23.380;2024-01-30T08:29:34;95972.44;;;0.90;66.07
11808;BME280;5961;42.640;23.380;2024-01-30T08:32:02;95951.59;;;0.83;64.90
11808;BME280;5961;42.640;23.380;2024-01-30T08:34:30;95969.84;;;1.01;64.64
11808;BME280;5961;42.640;23.380;2024-01-30T08:36:56;95974.66;;;1.16;64.71
11808;BME280;5961;42.640;23.380;2024-01-30T08:39:23;95964.28;;;1.21;64.53
11808;BME280;5961;42.640;23.380;2024-01-30T08:41:50;95981.06;;;1.32;64.21
11808;BME280;5961;42.640;23.380;2024-01-30T08:44:16;95976.06;;;1.42;64.06
11808;BME280;5961;42.640;23.380;2024-01-30T08:46:44;95979.59;;;1.47;63.95
11808;BME280;5961;42.640;23.380;2024-01-30T08:49:11;95979.78;;;1.57;63.38
11808;BME280;5961;42.640;23.380;2024-01-30T08:51:39;95981.28;;;1.65;64.34
11808;BME280;5961;42.640;23.380;2024-01-30T08:54:06;95990.88;;;1.71;63.57
11808;BME280;5961;42.640;23.380;2024-01-30T08:56:33;95939.59;;;1.52;62.41
11808;BME280;5961;42.640;23.380;2024-01-30T08:58:59;95985.38;;;1.84;61.65
11808;BME280;5961;42.640;23.380;2024-01-30T09:01:26;95987.31;;;1.89;63.29
11808;BME280;5961;42.640;23.380;2024-01-30T09:03:53;95995.28;;;1.94;61.94
11808;BME280;5961;42.640;23.380;2024-01-30T09:06:19;95976.84;;;1.77;61.52
11808;BME280;5961;42.640;23.380;2024-01-30T09:08:48;95942.53;;;1.67;61.08
11808;BME280;5961;42.640;23.380;2024-01-30T09:11:15;95927.38;;;1.57;60.82
11808;BME280;5961;42.640;23.380;2024-01-30T09:13:41;95989.56;;;1.97;60.25
11808;BME280;5961;42.640;23.380;2024-01-30T09:16:08;95979.88;;;1.97;60.67
11808;BME280;5961;42.640;23.380;2024-01-30T09:18:35;95976.59;;;2.02;60.74
11808;BME280;5961;42.640;23.380;2024-01-30T09:21:02;95967.66;;;2.03;60.34
11808;BME280;5961;42.640;23.380;2024-01-30T09:23:29;95979.84;;;2.09;59.90
11808;BME280;5961;42.640;23.380;2024-01-30T09:25:57;95970.75;;;2.11;59.66
11808;BME280;5961;42.640;23.380;2024-01-30T09:28:24;95976.88;;;2.17;59.74
11808;BME280;5961;42.640;23.380;2024-01-30T09:30:51;95970.03;;;2.16;59.53
11808;BME280;5961;42.640;23.380;2024-01-30T09:33:18;95959.78;;;2.14;59.78
11808;BME280;5961;42.640;23.380;2024-01-30T09:35:45;95972.06;;;2.26;59.77
11808;BME280;5961;42.640;23.380;2024-01-30T09:38:12;95977.19;;;2.32;59.41
11808;BME280;5961;42.640;23.380;2024-01-30T09:40:38;95953.06;;;2.07;60.46
11808;BME280;5961;42.640;23.380;2024-01-30T09:43:09;95965.81;;;2.15;61.16
11808;BME280;5961;42.640;23.380;2024-01-30T09:45:39;95953.78;;;2.02;60.42
11808;BME280;5961;42.640;23.380;2024-01-30T09:48:07;95958.63;;;2.22;60.32
11808;BME280;5961;42.640;23.380;2024-01-30T09:50:34;95943.25;;;2.14;59.75
11808;BME280;5961;42.640;23.380;2024-01-30T09:53:03;95959.63;;;2.21;59.46
11808;BME280;5961;42.640;23.380;2024-01-30T09:55:30;95959.75;;;2.26;59.15
11808;BME280;5961;42.640;23.380;2024-01-30T09:57:57;95959.59;;;2.44;58.67
11808;BME280;5961;42.640;23.380;2024-01-30T10:00:26;95954.97;;;2.51;58.59
11808;BME280;5961;42.640;23.380;2024-01-30T10:02:53;95948.97;;;2.39;58.99
11808;BME280;5961;42.640;23.380;2024-01-30T10:05:19;95949.09;;;2.44;59.06
11808;BME280;5961;42.640;23.380;2024-01-30T10:07:53;95946.03;;;2.36;59.09
11808;BME280;5961;42.640;23.380;2024-01-30T10:10:21;95939.38;;;2.45;59.40
11808;BME280;5961;42.640;23.380;2024-01-30T10:12:48;95942.16;;;2.38;59.42
11808;BME280;5961;42.640;23.380;2024-01-30T10:15:15;95928.91;;;2.33;59.21
11808;BME280;5961;42.640;23.380;2024-01-30T10:17:45;95946.94;;;2.41;60.01
11808;BME280;5961;42.640;23.380;2024-01-30T10:20:12;95940.16;;;2.45;60.94
11808;BME280;5961;42.640;23.380;2024-01-30T10:22:40;95941.63;;;2.53;60.74
11808;BME280;5961;42.640;23.380;2024-01-30T10:25:07;95933.19;;;2.51;60.19
11808;BME280;5961;42.640;23.380;2024-01-30T10:27:36;95940.31;;;2.39;61.61
11808;BME280;5961;42.640;23.380;2024-01-30T10:30:03;95942.69;;;2.40;61.97
11808;BME280;5961;42.640;23.380;2024-01-30T10:32:30;95944.84;;;2.43;63.46
11808;BME280;5961;42.640;23.380;2024-01-30T10:34:58;95953.75;;;2.42;63.70
11808;BME280;5961;42.640;23.380;2024-01-30T10:37:25;95941.56;;;2.36;63.21
11808;BME280;5961;42.640;23.380;2024-01-30T10:39:53;95891.00;;;2.12;63.41
11808;BME280;5961;42.640;23.380;2024-01-30T10:42:20;95940.78;;;2.36;62.15
11808;BME280;5961;42.640;23.380;2024-01-30T10:44:56;95934.16;;;2.33;64.08
11808;BME280;5961;42.640;23.380;2024-01-30T10:47:27;95930.91;;;2.26;63.39
11808;BME280;5961;42.640;23.380;2024-01-30T10:49:55;95934.06;;;2.28;62.48
11808;BME280;5961;42.640;23.380;2024-01-30T10:52:24;95937.25;;;2.30;63.60
11808;BME280;5961;42.640;23.380;2024-01-30T10:54:54;95941.47;;;2.31;63.94
11808;BME280;5961;42.640;23.380;2024-01-30T10:57:23;95932.81;;;2.31;63.08
11808;BME280;5961;42.640;23.380;2024-01-30T10:59:51;95922.44;;;2.24;63.75
11808;BME280;5961;42.640;23.380;2024-01-30T11:02:19;95919.34;;;2.39;63.46
11808;BME280;5961;42.640;23.380;2024-01-30T11:04:46;95924.81;;;2.37;62.72
11808;BME280;5961;42.640;23.380;2024-01-30T11:07:16;95917.19;;;2.36;62.22
11808;BME280;5961;42.640;23.380;2024-01-30T11:10:09;95921.78;;;2.45;62.97
11808;BME280;5961;42.640;23.380;2024-01-30T11:12:39;95910.28;;;2.46;62.78
11808;BME280;5961;42.640;23.380;2024-01-30T11:15:09;95911.88;;;2.47;65.63
11808;BME280;5961;42.640;23.380;2024-01-30T11:17:44;95913.78;;;2.52;63.63
11808;BME280;5961;42.640;23.380;2024-01-30T11:20:11;95910.75;;;2.60;64.10
11808;BME280;5961;42.640;23.380;2024-01-30T11:22:41;95908.72;;;2.78;62.72
11808;BME280;5961;42.640;23.380;2024-01-30T11:25:13;95905.53;;;2.76;61.70
11808;BME280;5961;42.640;23.380;2024-01-30T11:27:41;95909.38;;;2.86;62.62
11808;BME280;5961;42.640;23.380;2024-01-30T11:30:08;95908.28;;;2.98;61.73
11808;BME280;5961;42.640;23.380;2024-01-30T11:32:35;95910.25;;;3.08;61.79
11808;BME280;5961;42.640;23.380;2024-01-30T11:35:03;95909.06;;;3.15;60.72
11808;BME280;5961;42.640;23.380;2024-01-30T11:37:31;95909.84;;;3.16;61.30
11808;BME280;5961;42.640;23.380;2024-01-30T11:39:58;95909.84;;;3.16;61.01
11808;BME280;5961;42.640;23.380;2024-01-30T11:42:27;95911.47;;;3.17;61.48
11808;BME280;5961;42.640;23.380;2024-01-30T11:44:53;95905.88;;;3.13;61.90
11808;BME280;5961;42.640;23.380;2024-01-30T11:47:20;95907.72;;;3.13;60.93
11808;BME280;5961;42.640;23.380;2024-01-30T11:49:48;95905.88;;;3.13;61.38
11808;BME280;5961;42.640;23.380;2024-01-30T11:52:16;95900.78;;;3.07;61.81
11808;BME280;5961;42.640;23.380;2024-01-30T11:54:42;95908.00;;;3.00;60.60
11808;BME280;5961;42.640;23.380;2024-01-30T11:57:09;95900.53;;;3.08;62.87
11808;BME280;5961;42.640;23.380;2024-01-30T11:59:37;95890.44;;;3.00;61.09
11808;BME280;5961;42.640;23.380;2024-01-30T12:02:04;95880.97;;;2.83;60.51
11808;BME280;5961;42.640;23.380;2024-01-30T12:04:31;95882.16;;;2.92;61.06
11808;BME280;5961;42.640;23.380;2024-01-30T12:06:57;95883.28;;;2.96;61.27
11808;BME280;5961;42.640;23.380;2024-01-30T12:09:24;95868.13;;;3.03;61.33
11808;BME280;5961;42.640;23.380;2024-01-30T12:11:51;95867.34;;;3.19;60.72
11808;BME280;5961;42.640;23.380;2024-01-30T12:14:18;95872.56;;;3.36;59.72
11808;BME280;5961;42.640;23.380;2024-01-30T12:16:49;95862.06;;;3.57;59.91
11808;BME280;5961;42.640;23.380;2024-01-30T12:19:23;95863.75;;;3.85;58.20
11808;BME280;5961;42.640;23.380;2024-01-30T12:21:54;95865.88;;;4.10;57.87
11808;BME280;5961;42.640;23.380;2024-01-30T12:24:22;95853.47;;;4.32;56.83
11808;BME280;5961;42.640;23.380;2024-01-30T12:26:48;95868.69;;;4.57;56.07
11808;BME280;5961;42.640;23.380;2024-01-30T12:29:15;95862.78;;;4.71;54.95
11808;BME280;5961;42.640;23.380;2024-01-30T12:31:42;95858.66;;;4.80;55.67
11808;BME280;5961;42.640;23.380;2024-01-30T12:34:13;95853.72;;;4.89;55.10
11808;BME280;5961;42.640;23.380;2024-01-30T12:36:41;95845.38;;;5.02;54.43
11808;BME280;5961;42.640;23.380;2024-01-30T12:39:11;95842.59;;;5.19;52.97
11808;BME280;5961;42.640;23.380;2024-01-30T12:41:38;95836.34;;;5.30;52.01
11808;BME280;5961;42.640;23.380;2024-01-30T12:44:04;95826.34;;;5.37;51.69
11808;BME280;5961;42.640;23.380;2024-01-30T12:46:31;95831.94;;;5.40;51.33
11808;BME280;5961;42.640;23.380;2024-01-30T12:48:58;95833.78;;;5.50;51.21
11808;BME280;5961;42.640;23.380;2024-01-30T12:51:26;95829.09;;;5.62;49.25
11808;BME280;5961;42.640;23.380;2024-01-30T12:53:53;95802.19;;;5.60;49.10
11808;BME280;5961;42.640;23.380;2024-01-30T12:56:19;95824.47;;;5.84;49.54
11808;BME280;5961;42.640;23.380;2024-01-30T12:58:46;95814.81;;;6.10;48.20
11808;BME280;5961;42.640;23.380;2024-01-30T13:01:13;95812.00;;;6.52;47.43
11808;BME280;5961;42.640;23.380;2024-01-30T13:03:39;95809.63;;;6.76;46.71
11808;BME280;5961;42.640;23.380;2024-01-30T13:06:06;95806.69;;;7.12;45.76
11808;BME280;5961;42.640;23.380;2024-01-30T13:08:34;95811.81;;;7.73;44.14
11808;BME280;5961;42.640;23.380;2024-01-30T13:11:01;95803.63;;;8.23;42.30